^^
Marion, Virginia Banner
 

Adwolf, VA. Station Historical Data
[ Providing Data Since 6/07/2007 ]
Station Historical Data
 
Daily Summary for June 28, 2017 Units:  Both    English   Metric
« Previous Day
Next Day »
Daily Weekly Monthly Yearly Custom
  Current: High: Low: Average:
Temperature: 81.1 °F /  27.3 °C 82.0 °F /  27.8 °C 48.1 °F /  8.9 °C 62.7 °F /  17.1 °C
Dew Point: 54.5 °F /  12.5 °C 57.6 °F /  14.2 °C 46.1 °F /  7.8 °C 51.2 °F /  10.7 °C
Humidity: 40% 94% 38% 71%
Wind Speed: 6.0mph /  9.7km/h 10.4mph /  16.7km/h - 3.3mph /  5.3km/h
Wind Gust: 6.0mph /  9.7km/h 10.4mph /  16.7km/h - -
WindSSW - - SSE
Pressure: 30.25 in /  1024.3 hPa 30.35 in /  1027.7 hPa 30.25 in /  1024.3 hPa -
Precipitation: 0.00 in /  0 mm      
Historical Graphs
 
 
Tabular Data for June 28, 2017
Time Temperature Dew Point Pressure Wind Wind Speed Wind Gust Humidity Rainfall Rate (Hourly) solar Conditions
00:03 55.2 °F /  12.9 °C 51.4 °F /  10.8 °C 30.25in /  1024.3hPa Calm     87% 0.00in /  0mm WeatherDisplay:10.37 W/m2 RA
00:08 55.0 °F /  12.8 °C 51.2 °F /  10.7 °C 30.25in /  1024.3hPa Calm     87% 0.00in /  0mm WeatherDisplay:10.37 W/m2 RA
00:13 54.8 °F /  12.7 °C 51.0 °F /  10.6 °C 30.25in /  1024.3hPa WNW 1.2mph /  1.9km/h 1.2mph /  1.9km/h 87% 0.00in /  0mm WeatherDisplay:10.37 W/m2 CLR
00:18 54.7 °F /  12.6 °C 50.9 °F /  10.5 °C 30.25in /  1024.3hPa Calm     87% 0.00in /  0mm WeatherDisplay:10.37 W/m2 CLR
00:23 54.5 °F /  12.5 °C 51.0 °F /  10.6 °C 30.25in /  1024.3hPa Calm     88% 0.00in /  0mm WeatherDisplay:10.37 W/m2 CLR
00:28 54.4 °F /  12.4 °C 50.9 °F /  10.5 °C 30.25in /  1024.3hPa WNW 1.2mph /  1.9km/h 1.2mph /  1.9km/h 88% 0.00in /  0mm WeatherDisplay:10.37 W/m2 CLR
00:33 54.2 °F /  12.3 °C 50.7 °F /  10.4 °C 30.25in /  1024.3hPa WNW 1.2mph /  1.9km/h 1.2mph /  1.9km/h 88% 0.00in /  0mm WeatherDisplay:10.37 W/m2 CLR
00:38 54.0 °F /  12.2 °C 50.5 °F /  10.3 °C 30.25in /  1024.3hPa Calm     88% 0.00in /  0mm WeatherDisplay:10.37 W/m2 CLR
00:43 53.8 °F /  12.1 °C 50.6 °F /  10.3 °C 30.25in /  1024.3hPa WNW 1.2mph /  1.9km/h   89% 0.00in /  0mm WeatherDisplay:10.37 W/m2 CLR
00:48 53.6 °F /  12 °C 50.4 °F /  10.2 °C 30.25in /  1024.3hPa Calm     89% 0.00in /  0mm WeatherDisplay:10.37 W/m2 CLR
00:53 53.5 °F /  11.9 °C 50.3 °F /  10.2 °C 30.26in /  1024.6hPa Calm     89% 0.00in /  0mm WeatherDisplay:10.37 W/m2 CLR
00:58 53.3 °F /  11.8 °C 50.4 °F /  10.2 °C 30.26in /  1024.6hPa WNW 1.2mph /  1.9km/h   90% 0.00in /  0mm WeatherDisplay:10.37 W/m2 CLR
01:03 53.2 °F /  11.8 °C 50.3 °F /  10.2 °C 30.26in /  1024.6hPa WNW 1.2mph /  1.9km/h 1.2mph /  1.9km/h 90% 0.00in /  0mm WeatherDisplay:10.37 W/m2 CLR
01:08 53.1 °F /  11.7 °C 50.2 °F /  10.1 °C 30.26in /  1024.6hPa WNW 1.2mph /  1.9km/h   90% 0.00in /  0mm WeatherDisplay:10.37 W/m2 CLR
01:13 53.0 °F /  11.7 °C 50.1 °F /  10.1 °C 30.26in /  1024.6hPa WNW 1.2mph /  1.9km/h 1.2mph /  1.9km/h 90% 0.00in /  0mm WeatherDisplay:10.37 W/m2 CLR
01:14 53.0 °F /  11.7 °C 50.1 °F /  10.1 °C 30.26in /  1024.6hPa WNW 1.2mph /  1.9km/h 1.2mph /  1.9km/h 90% 0.00in /  0mm WeatherDisplay:10.37 W/m2 CLR
01:19 52.9 °F /  11.6 °C 50.0 °F /  10 °C 30.26in /  1024.6hPa WNW 1.2mph /  1.9km/h 1.2mph /  1.9km/h 90% 0.00in /  0mm WeatherDisplay:10.37 W/m2 CLR
01:20 52.9 °F /  11.6 °C 50.0 °F /  10 °C 30.26in /  1024.6hPa WNW 1.2mph /  1.9km/h 1.2mph /  1.9km/h 90% 0.00in /  0mm WeatherDisplay:10.37 W/m2 CLR
01:25 52.9 °F /  11.6 °C 50.3 °F /  10.2 °C 30.26in /  1024.6hPa WNW 3.5mph /  5.6km/h 3.5mph /  5.6km/h 91% 0.00in /  0mm WeatherDisplay:10.37 W/m2 CLR
01:26 52.9 °F /  11.6 °C 50.0 °F /  10 °C 30.26in /  1024.6hPa WNW 3.5mph /  5.6km/h 3.5mph /  5.6km/h 90% 0.00in /  0mm WeatherDisplay:10.37 W/m2 CLR
01:31 52.8 °F /  11.6 °C 50.2 °F /  10.1 °C 30.26in /  1024.6hPa WNW 2.3mph /  3.7km/h 2.3mph /  3.7km/h 91% 0.00in /  0mm WeatherDisplay:10.37 W/m2 CLR
01:36 52.7 °F /  11.5 °C 50.1 °F /  10.1 °C 30.26in /  1024.6hPa NW 2.3mph /  3.7km/h 2.3mph /  3.7km/h 91% 0.00in /  0mm WeatherDisplay:10.37 W/m2 CLR
01:41 52.6 °F /  11.4 °C 50.0 °F /  10 °C 30.27in /  1024.9hPa NW 2.3mph /  3.7km/h 2.3mph /  3.7km/h 91% 0.00in /  0mm WeatherDisplay:10.37 W/m2 CLR
01:46 52.6 °F /  11.4 °C 49.7 °F /  9.8 °C 30.27in /  1024.9hPa NW 2.3mph /  3.7km/h 2.3mph /  3.7km/h 90% 0.00in /  0mm WeatherDisplay:10.37 W/m2 CLR
01:51 52.5 °F /  11.4 °C 49.6 °F /  9.8 °C 30.27in /  1024.9hPa NE 3.5mph /  5.6km/h 3.5mph /  5.6km/h 90% 0.00in /  0mm WeatherDisplay:10.37 W/m2 CLR
01:56 52.3 °F /  11.3 °C 49.7 °F /  9.8 °C 30.27in /  1024.9hPa NE 2.3mph /  3.7km/h 2.3mph /  3.7km/h 91% 0.00in /  0mm WeatherDisplay:10.37 W/m2 CLR
02:01 52.2 °F /  11.2 °C 49.6 °F /  9.8 °C 30.27in /  1024.9hPa NE 2.3mph /  3.7km/h 2.3mph /  3.7km/h 91% 0.00in /  0mm WeatherDisplay:10.37 W/m2 CLR
02:06 52.2 °F /  11.2 °C 49.6 °F /  9.8 °C 30.27in /  1024.9hPa NE 2.3mph /  3.7km/h 2.3mph /  3.7km/h 91% 0.00in /  0mm WeatherDisplay:10.37 W/m2 CLR
02:11 52.1 °F /  11.2 °C 49.5 °F /  9.7 °C 30.27in /  1024.9hPa NE 2.3mph /  3.7km/h 2.3mph /  3.7km/h 91% 0.00in /  0mm WeatherDisplay:10.37 W/m2 CLR
02:16 52.0 °F /  11.1 °C 49.4 °F /  9.7 °C 30.27in /  1024.9hPa NE 2.3mph /  3.7km/h 2.3mph /  3.7km/h 91% 0.00in /  0mm WeatherDisplay:10.37 W/m2 CLR
02:21 51.9 °F /  11.1 °C 49.3 °F /  9.6 °C 30.27in /  1024.9hPa NE 2.3mph /  3.7km/h 2.3mph /  3.7km/h 91% 0.00in /  0mm WeatherDisplay:10.37 W/m2 CLR
02:26 51.8 °F /  11 °C 49.2 °F /  9.6 °C 30.27in /  1024.9hPa NE 3.0mph /  4.8km/h 3.0mph /  4.8km/h 91% 0.00in /  0mm WeatherDisplay:10.37 W/m2 CLR
02:31 51.6 °F /  10.9 °C 49.0 °F /  9.4 °C 30.27in /  1024.9hPa NE 3.5mph /  5.6km/h 3.5mph /  5.6km/h 91% 0.00in /  0mm WeatherDisplay:10.37 W/m2 CLR
02:36 51.4 °F /  10.8 °C 48.8 °F /  9.3 °C 30.27in /  1024.9hPa NE 3.5mph /  5.6km/h 3.5mph /  5.6km/h 91% 0.00in /  0mm WeatherDisplay:10.37 W/m2 CLR
02:41 51.4 °F /  10.8 °C 48.8 °F /  9.3 °C 30.27in /  1024.9hPa NE 2.3mph /  3.7km/h 2.3mph /  3.7km/h 91% 0.00in /  0mm WeatherDisplay:10.37 W/m2 CLR
02:46 51.3 °F /  10.7 °C 48.7 °F /  9.3 °C 30.27in /  1024.9hPa NE 3.5mph /  5.6km/h 3.5mph /  5.6km/h 91% 0.00in /  0mm WeatherDisplay:10.37 W/m2 CLR
02:51 51.3 °F /  10.7 °C 49.0 °F /  9.4 °C 30.27in /  1024.9hPa ENE 3.5mph /  5.6km/h 3.5mph /  5.6km/h 92% 0.00in /  0mm WeatherDisplay:10.37 W/m2 CLR
02:56 51.2 °F /  10.7 °C 48.9 °F /  9.4 °C 30.27in /  1024.9hPa ENE 3.5mph /  5.6km/h 3.5mph /  5.6km/h 92% 0.00in /  0mm WeatherDisplay:10.37 W/m2 CLR
03:01 51.2 °F /  10.7 °C 48.9 °F /  9.4 °C 30.27in /  1024.9hPa ENE 2.3mph /  3.7km/h 2.3mph /  3.7km/h 92% 0.00in /  0mm WeatherDisplay:10.37 W/m2 CLR
03:06 51.1 °F /  10.6 °C 48.8 °F /  9.3 °C 30.27in /  1024.9hPa ENE 3.5mph /  5.6km/h 3.5mph /  5.6km/h 92% 0.00in /  0mm WeatherDisplay:10.37 W/m2 CLR
03:11 50.9 °F /  10.5 °C 48.6 °F /  9.2 °C 30.27in /  1024.9hPa ENE 1.2mph /  1.9km/h 1.2mph /  1.9km/h 92% 0.00in /  0mm WeatherDisplay:10.37 W/m2 CLR
03:16 50.8 °F /  10.4 °C 48.2 °F /  9 °C 30.27in /  1024.9hPa ENE 2.3mph /  3.7km/h 2.3mph /  3.7km/h 91% 0.00in /  0mm WeatherDisplay:10.37 W/m2 CLR
03:21 50.7 °F /  10.4 °C 48.4 °F /  9.1 °C 30.27in /  1024.9hPa ENE 2.3mph /  3.7km/h 2.3mph /  3.7km/h 92% 0.00in /  0mm WeatherDisplay:10.37 W/m2 CLR
03:26 50.6 °F /  10.3 °C 48.3 °F /  9.1 °C 30.27in /  1024.9hPa ENE 2.0mph /  3.2km/h 2.0mph /  3.2km/h 92% 0.00in /  0mm WeatherDisplay:10.37 W/m2 CLR
03:31 50.5 °F /  10.3 °C 48.2 °F /  9 °C 30.27in /  1024.9hPa ENE 2.3mph /  3.7km/h 2.3mph /  3.7km/h 92% 0.00in /  0mm WeatherDisplay:10.37 W/m2 CLR
03:36 50.4 °F /  10.2 °C 48.1 °F /  8.9 °C 30.27in /  1024.9hPa ENE 2.3mph /  3.7km/h 2.3mph /  3.7km/h 92% 0.00in /  0mm WeatherDisplay:10.37 W/m2 CLR
03:41 50.3 °F /  10.2 °C 48.0 °F /  8.9 °C 30.28in /  1025.3hPa ENE 1.0mph /  1.6km/h   92% 0.00in /  0mm WeatherDisplay:10.37 W/m2 CLR
03:46 50.3 °F /  10.2 °C 48.0 °F /  8.9 °C 30.28in /  1025.3hPa ENE 1.0mph /  1.6km/h 1.0mph /  1.6km/h 92% 0.00in /  0mm WeatherDisplay:10.37 W/m2 CLR
03:51 50.2 °F /  10.1 °C 47.9 °F /  8.8 °C 30.28in /  1025.3hPa ENE 1.2mph /  1.9km/h   92% 0.00in /  0mm WeatherDisplay:10.37 W/m2 CLR
03:56 50.1 °F /  10.1 °C 47.8 °F /  8.8 °C 30.28in /  1025.3hPa ENE 1.0mph /  1.6km/h   92% 0.00in /  0mm WeatherDisplay:10.37 W/m2 CLR
04:01 50.0 °F /  10 °C 47.7 °F /  8.7 °C 30.28in /  1025.3hPa ENE 1.2mph /  1.9km/h 1.2mph /  1.9km/h 92% 0.00in /  0mm WeatherDisplay:10.37 W/m2 CLR
04:06 50.0 °F /  10 °C 47.7 °F /  8.7 °C 30.28in /  1025.3hPa ENE 1.2mph /  1.9km/h   92% 0.00in /  0mm WeatherDisplay:10.37 W/m2 CLR
04:11 49.9 °F /  9.9 °C 47.6 °F /  8.7 °C 30.28in /  1025.3hPa Calm     92% 0.00in /  0mm WeatherDisplay:10.37 W/m2 CLR
04:16 49.8 °F /  9.9 °C 47.5 °F /  8.6 °C 30.28in /  1025.3hPa ENE 1.2mph /  1.9km/h 1.2mph /  1.9km/h 92% 0.00in /  0mm WeatherDisplay:10.37 W/m2 CLR
04:21 49.6 °F /  9.8 °C 47.3 °F /  8.5 °C 30.28in /  1025.3hPa Calm     92% 0.00in /  0mm WeatherDisplay:10.37 W/m2 CLR
04:26 49.4 °F /  9.7 °C 47.1 °F /  8.4 °C 30.28in /  1025.3hPa Calm     92% 0.00in /  0mm WeatherDisplay:10.37 W/m2 CLR
04:31 49.2 °F /  9.6 °C 46.9 °F /  8.3 °C 30.27in /  1024.9hPa ENE 1.2mph /  1.9km/h 1.2mph /  1.9km/h 92% 0.00in /  0mm WeatherDisplay:10.37 W/m2 CLR
04:36 49.2 °F /  9.6 °C 47.2 °F /  8.4 °C 30.28in /  1025.3hPa Calm     93% 0.00in /  0mm WeatherDisplay:10.37 W/m2 CLR
04:41 49.1 °F /  9.5 °C 47.1 °F /  8.4 °C 30.28in /  1025.3hPa ENE 1.2mph /  1.9km/h 1.2mph /  1.9km/h 93% 0.00in /  0mm WeatherDisplay:10.37 W/m2 CLR
04:46 49.1 °F /  9.5 °C 47.1 °F /  8.4 °C 30.28in /  1025.3hPa ENE 2.3mph /  3.7km/h 2.3mph /  3.7km/h 93% 0.00in /  0mm WeatherDisplay:10.37 W/m2 CLR
04:51 49.0 °F /  9.4 °C 47.0 °F /  8.3 °C 30.28in /  1025.3hPa ENE 1.2mph /  1.9km/h 1.2mph /  1.9km/h 93% 0.00in /  0mm WeatherDisplay:10.37 W/m2 CLR
04:56 48.9 °F /  9.4 °C 46.9 °F /  8.3 °C 30.28in /  1025.3hPa ENE 1.2mph /  1.9km/h 1.2mph /  1.9km/h 93% 0.00in /  0mm WeatherDisplay:10.37 W/m2 CLR
05:01 48.9 °F /  9.4 °C 46.9 °F /  8.3 °C 30.28in /  1025.3hPa ENE 1.2mph /  1.9km/h 1.2mph /  1.9km/h 93% 0.00in /  0mm WeatherDisplay:10.37 W/m2 CLR
05:06 48.8 °F /  9.3 °C 46.8 °F /  8.2 °C 30.28in /  1025.3hPa Calm     93% 0.00in /  0mm WeatherDisplay:10.37 W/m2 CLR
05:11 48.6 °F /  9.2 °C 46.6 °F /  8.1 °C 30.28in /  1025.3hPa Calm     93% 0.00in /  0mm WeatherDisplay:10.37 W/m2 CLR
05:16 48.5 °F /  9.2 °C 46.5 °F /  8.1 °C 30.28in /  1025.3hPa ENE 2.3mph /  3.7km/h 2.3mph /  3.7km/h 93% 0.00in /  0mm WeatherDisplay:10.37 W/m2 CLR
05:21 48.4 °F /  9.1 °C 46.4 °F /  8 °C 30.28in /  1025.3hPa ENE 2.3mph /  3.7km/h 2.3mph /  3.7km/h 93% 0.00in /  0mm WeatherDisplay:10.37 W/m2 CLR
05:26 48.3 °F /  9.1 °C 46.3 °F /  7.9 °C 30.28in /  1025.3hPa ENE 2.3mph /  3.7km/h 2.3mph /  3.7km/h 93% 0.00in /  0mm WeatherDisplay:10.37 W/m2 CLR
05:31 48.2 °F /  9 °C 46.2 °F /  7.9 °C 30.29in /  1025.6hPa ENE 1.0mph /  1.6km/h 1.0mph /  1.6km/h 93% 0.00in /  0mm WeatherDisplay:10.37 W/m2 CLR
05:36 48.1 °F /  8.9 °C 46.1 °F /  7.8 °C 30.29in /  1025.6hPa ENE 1.2mph /  1.9km/h 1.2mph /  1.9km/h 93% 0.00in /  0mm WeatherDisplay:10.37 W/m2 CLR
05:41 48.1 °F /  8.9 °C 46.1 °F /  7.8 °C 30.29in /  1025.6hPa ENE 2.3mph /  3.7km/h 2.3mph /  3.7km/h 93% 0.00in /  0mm WeatherDisplay:10.37 W/m2 CLR
05:46 48.2 °F /  9 °C 46.5 °F /  8.1 °C 30.29in /  1025.6hPa ENE 3.5mph /  5.6km/h 3.5mph /  5.6km/h 94% 0.00in /  0mm WeatherDisplay:10.37 W/m2 CLR
05:51 48.2 °F /  9 °C 46.5 °F /  8.1 °C 30.29in /  1025.6hPa ENE 3.5mph /  5.6km/h 3.5mph /  5.6km/h 94% 0.00in /  0mm WeatherDisplay:10.37 W/m2 CLR
05:56 48.3 °F /  9.1 °C 46.3 °F /  7.9 °C 30.29in /  1025.6hPa ENE 2.3mph /  3.7km/h 2.3mph /  3.7km/h 93% 0.00in /  0mm WeatherDisplay:10.37 W/m2 CLR
06:01 48.2 °F /  9 °C 46.2 °F /  7.9 °C 30.29in /  1025.6hPa ENE 3.5mph /  5.6km/h 3.5mph /  5.6km/h 93% 0.00in /  0mm WeatherDisplay:10.37 W/m2 CLR
06:06 48.2 °F /  9 °C 46.2 °F /  7.9 °C 30.29in /  1025.6hPa ENE 3.5mph /  5.6km/h 3.5mph /  5.6km/h 93% 0.00in /  0mm WeatherDisplay:10.37 W/m2 CLR
06:11 48.2 °F /  9 °C 46.2 °F /  7.9 °C 30.30in /  1026hPa ENE 3.5mph /  5.6km/h 3.5mph /  5.6km/h 93% 0.00in /  0mm WeatherDisplay:10.37 W/m2 CLR
06:16 48.2 °F /  9 °C 46.2 °F /  7.9 °C 30.30in /  1026hPa ENE 2.3mph /  3.7km/h 2.3mph /  3.7km/h 93% 0.00in /  0mm WeatherDisplay:10.37 W/m2 CLR
06:21 48.1 °F /  8.9 °C 46.1 °F /  7.8 °C 30.30in /  1026hPa ENE 1.2mph /  1.9km/h 1.2mph /  1.9km/h 93% 0.00in /  0mm WeatherDisplay:10.37 W/m2 CLR
06:26 48.1 °F /  8.9 °C 46.1 °F /  7.8 °C 30.31in /  1026.3hPa ENE 2.3mph /  3.7km/h 2.3mph /  3.7km/h 93% 0.00in /  0mm WeatherDisplay:10.37 W/m2 CLR
06:31 48.1 °F /  8.9 °C 46.1 °F /  7.8 °C 30.31in /  1026.3hPa ENE 3.5mph /  5.6km/h 3.5mph /  5.6km/h 93% 0.00in /  0mm WeatherDisplay:10.37 W/m2 CLR
06:36 48.2 °F /  9 °C 46.2 °F /  7.9 °C 30.31in /  1026.3hPa ENE 3.5mph /  5.6km/h 3.5mph /  5.6km/h 93% 0.00in /  0mm WeatherDisplay:10.37 W/m2 CLR
06:41 48.5 °F /  9.2 °C 46.5 °F /  8.1 °C 30.31in /  1026.3hPa East 5.8mph /  9.3km/h 5.8mph /  9.3km/h 93% 0.00in /  0mm WeatherDisplay:10.37 W/m2 CLR
06:46 48.7 °F /  9.3 °C 46.7 °F /  8.2 °C 30.31in /  1026.3hPa East 5.8mph /  9.3km/h 5.8mph /  9.3km/h 93% 0.00in /  0mm WeatherDisplay:10.37 W/m2 CLR
06:51 48.7 °F /  9.3 °C 46.7 °F /  8.2 °C 30.31in /  1026.3hPa East 3.5mph /  5.6km/h 3.5mph /  5.6km/h 93% 0.00in /  0mm WeatherDisplay:10.37 W/m2 CLR
06:56 48.8 °F /  9.3 °C 46.5 °F /  8.1 °C 30.31in /  1026.3hPa East 3.5mph /  5.6km/h 3.5mph /  5.6km/h 92% 0.00in /  0mm WeatherDisplay:10.37 W/m2 CLR
07:01 48.9 °F /  9.4 °C 46.9 °F /  8.3 °C 30.31in /  1026.3hPa East 3.5mph /  5.6km/h 3.5mph /  5.6km/h 93% 0.00in /  0mm WeatherDisplay:10.37 W/m2 CLR
07:06 49.0 °F /  9.4 °C 47.0 °F /  8.3 °C 30.30in /  1026hPa East 3.5mph /  5.6km/h 3.5mph /  5.6km/h 93% 0.00in /  0mm WeatherDisplay:10.37 W/m2 CLR
07:11 49.2 °F /  9.6 °C 46.9 °F /  8.3 °C 30.30in /  1026hPa ESE 3.5mph /  5.6km/h 3.5mph /  5.6km/h 92% 0.00in /  0mm WeatherDisplay:10.37 W/m2 CLR
07:16 49.5 °F /  9.7 °C 47.2 °F /  8.4 °C 30.30in /  1026hPa East 5.8mph /  9.3km/h 5.8mph /  9.3km/h 92% 0.00in /  0mm WeatherDisplay:10.37 W/m2 CLR
07:21 49.8 °F /  9.9 °C 47.5 °F /  8.6 °C 30.30in /  1026hPa East 6.0mph /  9.7km/h 6.0mph /  9.7km/h 92% 0.00in /  0mm WeatherDisplay:10.37 W/m2 CLR
07:26 50.0 °F /  10 °C 47.7 °F /  8.7 °C 30.30in /  1026hPa East 3.5mph /  5.6km/h 3.5mph /  5.6km/h 92% 0.00in /  0mm WeatherDisplay:10.37 W/m2 CLR
07:31 50.3 °F /  10.2 °C 47.7 °F /  8.7 °C 30.30in /  1026hPa East 3.5mph /  5.6km/h 3.5mph /  5.6km/h 91% 0.00in /  0mm WeatherDisplay:10.37 W/m2 CLR
07:36 50.6 °F /  10.3 °C 48.0 °F /  8.9 °C 30.30in /  1026hPa East 3.5mph /  5.6km/h 3.5mph /  5.6km/h 91% 0.00in /  0mm WeatherDisplay:10.37 W/m2 CLR
07:37 50.7 °F /  10.4 °C 48.1 °F /  8.9 °C 30.30in /  1026hPa East 3.5mph /  5.6km/h 3.5mph /  5.6km/h 91% 0.00in /  0mm WeatherDisplay:10.37 W/m2 CLR
07:42 51.0 °F /  10.6 °C 48.4 °F /  9.1 °C 30.29in /  1025.6hPa East 5.8mph /  9.3km/h 5.8mph /  9.3km/h 91% 0.00in /  0mm WeatherDisplay:10.37 W/m2 CLR
07:47 51.4 °F /  10.8 °C 48.8 °F /  9.3 °C 30.30in /  1026hPa East 2.3mph /  3.7km/h 2.3mph /  3.7km/h 91% 0.00in /  0mm WeatherDisplay:10.37 W/m2 CLR
07:52 51.9 °F /  11.1 °C 49.0 °F /  9.4 °C 30.30in /  1026hPa East 3.5mph /  5.6km/h 3.5mph /  5.6km/h 90% 0.00in /  0mm WeatherDisplay:10.37 W/m2 CLR
07:57 52.4 °F /  11.3 °C 49.5 °F /  9.7 °C 30.30in /  1026hPa East 5.8mph /  9.3km/h 5.8mph /  9.3km/h 90% 0.00in /  0mm WeatherDisplay:10.37 W/m2 CLR
08:02 53.0 °F /  11.7 °C 49.8 °F /  9.9 °C 30.30in /  1026hPa East 3.5mph /  5.6km/h 3.5mph /  5.6km/h 89% 0.00in /  0mm WeatherDisplay:10.37 W/m2 CLR
08:07 53.8 °F /  12.1 °C 50.3 °F /  10.2 °C 30.31in /  1026.3hPa East 2.3mph /  3.7km/h 2.3mph /  3.7km/h 88% 0.00in /  0mm WeatherDisplay:10.37 W/m2 CLR
08:08 53.9 °F /  12.2 °C 50.4 °F /  10.2 °C 30.31in /  1026.3hPa East 3.5mph /  5.6km/h 3.5mph /  5.6km/h 88% 0.00in /  0mm WeatherDisplay:10.37 W/m2 CLR
08:13 54.8 °F /  12.7 °C 50.7 °F /  10.4 °C 30.31in /  1026.3hPa East 3.5mph /  5.6km/h 3.5mph /  5.6km/h 86% 0.00in /  0mm WeatherDisplay:10.37 W/m2 CLR
08:18 55.3 °F /  12.9 °C 50.8 °F /  10.4 °C 30.31in /  1026.3hPa East 3.5mph /  5.6km/h 3.5mph /  5.6km/h 85% 0.00in /  0mm WeatherDisplay:10.37 W/m2 CLR
08:23 55.9 °F /  13.3 °C 51.4 °F /  10.8 °C 30.31in /  1026.3hPa East 2.3mph /  3.7km/h 2.3mph /  3.7km/h 85% 0.00in /  0mm WeatherDisplay:10.37 W/m2 CLR
08:28 56.8 °F /  13.8 °C 52.3 °F /  11.3 °C 30.32in /  1026.6hPa East 1.2mph /  1.9km/h 1.2mph /  1.9km/h 85% 0.00in /  0mm WeatherDisplay:10.37 W/m2 CLR
08:33 57.6 °F /  14.2 °C 52.4 °F /  11.3 °C 30.32in /  1026.6hPa East 2.3mph /  3.7km/h 2.3mph /  3.7km/h 83% 0.00in /  0mm WeatherDisplay:10.37 W/m2 CLR
08:38 58.2 °F /  14.6 °C 52.7 °F /  11.5 °C 30.32in /  1026.6hPa East 4.0mph /  6.4km/h 4.0mph /  6.4km/h 82% 0.00in /  0mm WeatherDisplay:10.37 W/m2 CLR
08:43 59.0 °F /  15 °C 53.1 °F /  11.7 °C 30.32in /  1026.6hPa East 3.5mph /  5.6km/h 3.5mph /  5.6km/h 81% 0.00in /  0mm WeatherDisplay:10.37 W/m2 CLR
08:48 59.7 °F /  15.4 °C 53.8 °F /  12.1 °C 30.32in /  1026.6hPa East 1.2mph /  1.9km/h 1.2mph /  1.9km/h 81% 0.00in /  0mm WeatherDisplay:10.37 W/m2 CLR
08:53 60.5 °F /  15.8 °C 53.9 °F /  12.2 °C 30.33in /  1027hPa East 4.0mph /  6.4km/h 4.0mph /  6.4km/h 79% 0.00in /  0mm WeatherDisplay:10.37 W/m2 CLR
08:58 60.9 °F /  16.1 °C 54.3 °F /  12.4 °C 30.33in /  1027hPa East 3.5mph /  5.6km/h 3.5mph /  5.6km/h 79% 0.00in /  0mm WeatherDisplay:10.37 W/m2 CLR
09:03 61.4 °F /  16.3 °C 54.8 °F /  12.7 °C 30.34in /  1027.3hPa East 2.3mph /  3.7km/h 2.3mph /  3.7km/h 79% 0.00in /  0mm WeatherDisplay:10.37 W/m2 CLR
09:08 62.0 °F /  16.7 °C 54.7 °F /  12.6 °C 30.34in /  1027.3hPa ENE 3.5mph /  5.6km/h 3.5mph /  5.6km/h 77% 0.00in /  0mm WeatherDisplay:10.37 W/m2 CLR
09:13 62.4 °F /  16.9 °C 55.1 °F /  12.8 °C 30.34in /  1027.3hPa ENE 2.3mph /  3.7km/h 2.3mph /  3.7km/h 77% 0.00in /  0mm WeatherDisplay:10.37 W/m2 CLR
09:18 62.9 °F /  17.2 °C 55.9 °F /  13.3 °C 30.35in /  1027.7hPa ENE 3.0mph /  4.8km/h 3.0mph /  4.8km/h 78% 0.00in /  0mm WeatherDisplay:10.37 W/m2 CLR
09:23 63.3 °F /  17.4 °C 55.6 °F /  13.1 °C 30.34in /  1027.3hPa ENE 1.2mph /  1.9km/h 1.2mph /  1.9km/h 76% 0.00in /  0mm WeatherDisplay:10.37 W/m2 CLR
09:28 64.0 °F /  17.8 °C 55.9 °F /  13.3 °C 30.35in /  1027.7hPa ENE 2.3mph /  3.7km/h 2.3mph /  3.7km/h 75% 0.00in /  0mm WeatherDisplay:10.37 W/m2 CLR
09:33 64.8 °F /  18.2 °C 56.3 °F /  13.5 °C 30.35in /  1027.7hPa NNE 4.0mph /  6.4km/h 4.0mph /  6.4km/h 74% 0.00in /  0mm WeatherDisplay:10.37 W/m2 CLR
09:34 64.9 °F /  18.3 °C 56.4 °F /  13.6 °C 30.35in /  1027.7hPa NNE 3.5mph /  5.6km/h 3.5mph /  5.6km/h 74% 0.00in /  0mm WeatherDisplay:10.37 W/m2 CLR
09:39 65.5 °F /  18.6 °C 56.2 °F /  13.4 °C 30.35in /  1027.7hPa NNE 3.5mph /  5.6km/h 3.5mph /  5.6km/h 72% 0.00in /  0mm WeatherDisplay:10.37 W/m2 CLR
09:44 66.2 °F /  19 °C 55.7 °F /  13.2 °C 30.34in /  1027.3hPa East 4.0mph /  6.4km/h 4.0mph /  6.4km/h 69% 0.00in /  0mm WeatherDisplay:10.37 W/m2 CLR
09:49 67.0 °F /  19.4 °C 55.6 °F /  13.1 °C 30.34in /  1027.3hPa ESE 3.5mph /  5.6km/h 3.5mph /  5.6km/h 67% 0.00in /  0mm WeatherDisplay:10.37 W/m2 CLR
09:54 67.6 °F /  19.8 °C 55.8 °F /  13.2 °C 30.34in /  1027.3hPa East 5.8mph /  9.3km/h 5.8mph /  9.3km/h 66% 0.00in /  0mm WeatherDisplay:10.37 W/m2 CLR
09:59 68.2 °F /  20.1 °C 54.2 °F /  12.3 °C 30.35in /  1027.7hPa NE 3.5mph /  5.6km/h 3.5mph /  5.6km/h 61% 0.00in /  0mm WeatherDisplay:10.37 W/m2 CLR
10:04 68.8 °F /  20.4 °C 54.8 °F /  12.7 °C 30.34in /  1027.3hPa ENE 4.0mph /  6.4km/h 4.0mph /  6.4km/h 61% 0.00in /  0mm WeatherDisplay:10.37 W/m2 CLR
10:09 69.1 °F /  20.6 °C 53.2 °F /  11.8 °C 30.35in /  1027.7hPa NNE 4.6mph /  7.4km/h 4.6mph /  7.4km/h 57% 0.00in /  0mm WeatherDisplay:10.37 W/m2 CLR
10:14 69.3 °F /  20.7 °C 53.8 °F /  12.1 °C 30.34in /  1027.3hPa NNE 2.3mph /  3.7km/h 2.3mph /  3.7km/h 58% 0.00in /  0mm WeatherDisplay:10.37 W/m2 CLR
10:19 69.9 °F /  21.1 °C 53.9 °F /  12.2 °C 30.34in /  1027.3hPa NNE 3.5mph /  5.6km/h 3.5mph /  5.6km/h 57% 0.00in /  0mm WeatherDisplay:10.37 W/m2 CLR
10:24 70.4 °F /  21.3 °C 54.4 °F /  12.4 °C 30.33in /  1027hPa NNE 1.2mph /  1.9km/h 1.2mph /  1.9km/h 57% 0.00in /  0mm WeatherDisplay:10.37 W/m2 CLR
10:29 71.1 °F /  21.7 °C 54.6 °F /  12.6 °C 30.33in /  1027hPa NNE 2.3mph /  3.7km/h 2.3mph /  3.7km/h 56% 0.00in /  0mm WeatherDisplay:10.37 W/m2 CLR
10:34 71.8 °F /  22.1 °C 55.2 °F /  12.9 °C 30.33in /  1027hPa NNE 2.3mph /  3.7km/h 2.3mph /  3.7km/h 56% 0.00in /  0mm WeatherDisplay:10.37 W/m2 CLR
10:39 72.7 °F /  22.6 °C 53.5 °F /  11.9 °C 30.33in /  1027hPa NNE 3.0mph /  4.8km/h 3.0mph /  4.8km/h 51% 0.00in /  0mm WeatherDisplay:10.37 W/m2 CLR
10:44 73.0 °F /  22.8 °C 52.1 °F /  11.2 °C 30.33in /  1027hPa SSE 2.3mph /  3.7km/h 2.3mph /  3.7km/h 48% 0.00in /  0mm WeatherDisplay:10.37 W/m2 CLR
10:49 73.0 °F /  22.8 °C 54.3 °F /  12.4 °C 30.33in /  1027hPa NNE 4.0mph /  6.4km/h 4.0mph /  6.4km/h 52% 0.00in /  0mm WeatherDisplay:10.37 W/m2 CLR
10:54 72.7 °F /  22.6 °C 54.0 °F /  12.2 °C 30.33in /  1027hPa NNE 2.3mph /  3.7km/h 2.3mph /  3.7km/h 52% 0.00in /  0mm WeatherDisplay:10.37 W/m2 CLR
10:59 73.0 °F /  22.8 °C 52.7 °F /  11.5 °C 30.32in /  1026.6hPa NNE 6.9mph /  11.1km/h 6.9mph /  11.1km/h 49% 0.00in /  0mm WeatherDisplay:10.37 W/m2 CLR
11:04 72.9 °F /  22.7 °C 52.6 °F /  11.4 °C 30.32in /  1026.6hPa NNE 3.5mph /  5.6km/h 3.5mph /  5.6km/h 49% 0.00in /  0mm WeatherDisplay:10.37 W/m2 CLR
11:09 73.4 °F /  23 °C 51.9 °F /  11.1 °C 30.33in /  1027hPa North 2.3mph /  3.7km/h 2.3mph /  3.7km/h 47% 0.00in /  0mm WeatherDisplay:10.37 W/m2 CLR
11:14 73.4 °F /  23 °C 50.7 °F /  10.4 °C 30.32in /  1026.6hPa SW 3.5mph /  5.6km/h 3.5mph /  5.6km/h 45% 0.00in /  0mm WeatherDisplay:10.37 W/m2 CLR
11:19 73.6 °F /  23.1 °C 52.7 °F /  11.5 °C 30.32in /  1026.6hPa SW 3.5mph /  5.6km/h 3.5mph /  5.6km/h 48% 0.00in /  0mm WeatherDisplay:10.37 W/m2 CLR
11:24 74.2 °F /  23.4 °C 53.2 °F /  11.8 °C 30.32in /  1026.6hPa West 3.5mph /  5.6km/h 3.5mph /  5.6km/h 48% 0.00in /  0mm WeatherDisplay:10.37 W/m2 CLR
11:29 73.8 °F /  23.2 °C 51.7 °F /  10.9 °C 30.32in /  1026.6hPa West 3.5mph /  5.6km/h 3.5mph /  5.6km/h 46% 0.00in /  0mm WeatherDisplay:10.37 W/m2 CLR
11:30 73.8 °F /  23.2 °C 51.7 °F /  10.9 °C 30.32in /  1026.6hPa NNW 4.0mph /  6.4km/h 4.0mph /  6.4km/h 46% 0.00in /  0mm WeatherDisplay:10.37 W/m2 CLR
11:34 74.0 °F /  23.3 °C 52.5 °F /  11.4 °C 30.33in /  1027hPa West 3.0mph /  4.8km/h 3.0mph /  4.8km/h 47% 0.00in /  0mm WeatherDisplay:10.37 W/m2 CLR
11:39 73.7 °F /  23.2 °C 52.2 °F /  11.2 °C 30.33in /  1027hPa WSW 3.5mph /  5.6km/h 3.5mph /  5.6km/h 47% 0.00in /  0mm WeatherDisplay:10.37 W/m2 CLR
11:44 74.0 °F /  23.3 °C 52.5 °F /  11.4 °C 30.33in /  1027hPa SW 3.5mph /  5.6km/h 3.5mph /  5.6km/h 47% 0.00in /  0mm WeatherDisplay:10.37 W/m2 CLR
11:49 74.6 °F /  23.7 °C 53.0 °F /  11.7 °C 30.33in /  1027hPa SW 3.5mph /  5.6km/h 3.5mph /  5.6km/h 47% 0.00in /  0mm WeatherDisplay:10.37 W/m2 CLR
11:54 74.6 °F /  23.7 °C 52.4 °F /  11.3 °C 30.32in /  1026.6hPa West 3.5mph /  5.6km/h 3.5mph /  5.6km/h 46% 0.00in /  0mm WeatherDisplay:10.37 W/m2 CLR
11:59 74.8 °F /  23.8 °C 52.6 °F /  11.4 °C 30.32in /  1026.6hPa South 3.5mph /  5.6km/h 3.5mph /  5.6km/h 46% 0.00in /  0mm WeatherDisplay:10.37 W/m2 CLR
12:04 74.6 °F /  23.7 °C 53.6 °F /  12 °C 30.32in /  1026.6hPa WSW 4.0mph /  6.4km/h 4.0mph /  6.4km/h 48% 0.00in /  0mm WeatherDisplay:10.37 W/m2 CLR
12:09 74.8 °F /  23.8 °C 51.4 °F /  10.8 °C 30.33in /  1027hPa NNW 3.5mph /  5.6km/h 3.5mph /  5.6km/h 44% 0.00in /  0mm WeatherDisplay:10.37 W/m2 CLR
12:14 74.9 °F /  23.8 °C 52.7 °F /  11.5 °C 30.32in /  1026.6hPa SSW 3.5mph /  5.6km/h 3.5mph /  5.6km/h 46% 0.00in /  0mm WeatherDisplay:10.37 W/m2 CLR
12:19 75.1 °F /  23.9 °C 52.9 °F /  11.6 °C 30.32in /  1026.6hPa SW 3.5mph /  5.6km/h 3.5mph /  5.6km/h 46% 0.00in /  0mm WeatherDisplay:10.37 W/m2 CLR
12:24 75.6 °F /  24.2 °C 52.1 °F /  11.2 °C 30.32in /  1026.6hPa SSW 6.9mph /  11.1km/h 6.9mph /  11.1km/h 44% 0.00in /  0mm WeatherDisplay:10.37 W/m2 CLR
12:29 75.6 °F /  24.2 °C 53.3 °F /  11.8 °C 30.31in /  1026.3hPa WSW 3.5mph /  5.6km/h 3.5mph /  5.6km/h 46% 0.00in /  0mm WeatherDisplay:10.37 W/m2 CLR
12:34 75.8 °F /  24.3 °C 52.9 °F /  11.6 °C 30.31in /  1026.3hPa South 3.5mph /  5.6km/h 3.5mph /  5.6km/h 45% 0.00in /  0mm WeatherDisplay:10.37 W/m2 CLR
12:39 75.9 °F /  24.4 °C 53.0 °F /  11.7 °C 30.31in /  1026.3hPa West 3.5mph /  5.6km/h 3.5mph /  5.6km/h 45% 0.00in /  0mm WeatherDisplay:10.37 W/m2 CLR
12:44 76.3 °F /  24.6 °C 52.7 °F /  11.5 °C 30.32in /  1026.6hPa SW 4.6mph /  7.4km/h 4.6mph /  7.4km/h 44% 0.00in /  0mm WeatherDisplay:10.37 W/m2 CLR
12:49 76.5 °F /  24.7 °C 53.5 °F /  11.9 °C 30.32in /  1026.6hPa South 6.9mph /  11.1km/h 6.9mph /  11.1km/h 45% 0.00in /  0mm WeatherDisplay:10.37 W/m2 CLR
12:54 76.7 °F /  24.8 °C 53.1 °F /  11.7 °C 30.31in /  1026.3hPa SW 4.6mph /  7.4km/h 4.6mph /  7.4km/h 44% 0.00in /  0mm WeatherDisplay:10.37 W/m2 CLR
12:59 76.6 °F /  24.8 °C 53.0 °F /  11.7 °C 30.32in /  1026.6hPa WNW 6.9mph /  11.1km/h 6.9mph /  11.1km/h 44% 0.00in /  0mm WeatherDisplay:10.37 W/m2 CLR
13:04 76.6 °F /  24.8 °C 54.2 °F /  12.3 °C 30.31in /  1026.3hPa SSW 8.1mph /  13km/h 8.1mph /  13km/h 46% 0.00in /  0mm WeatherDisplay:10.37 W/m2 CLR
13:09 76.8 °F /  24.9 °C 53.8 °F /  12.1 °C 30.31in /  1026.3hPa SW 4.6mph /  7.4km/h 4.6mph /  7.4km/h 45% 0.00in /  0mm WeatherDisplay:10.37 W/m2 CLR
13:14 76.8 °F /  24.9 °C 55.6 °F /  13.1 °C 30.31in /  1026.3hPa SW 8.1mph /  13km/h 8.1mph /  13km/h 48% 0.00in /  0mm WeatherDisplay:10.37 W/m2 CLR
13:19 76.9 °F /  24.9 °C 54.5 °F /  12.5 °C 30.31in /  1026.3hPa SW 6.9mph /  11.1km/h 6.9mph /  11.1km/h 46% 0.00in /  0mm WeatherDisplay:10.37 W/m2 CLR
13:24 77.2 °F /  25.1 °C 55.4 °F /  13 °C 30.31in /  1026.3hPa WSW 3.5mph /  5.6km/h 3.5mph /  5.6km/h 47% 0.00in /  0mm WeatherDisplay:10.37 W/m2 CLR
13:29 77.8 °F /  25.4 °C 55.3 °F /  12.9 °C 30.31in /  1026.3hPa WNW 3.5mph /  5.6km/h 3.5mph /  5.6km/h 46% 0.00in /  0mm WeatherDisplay:10.37 W/m2 CLR
13:34 77.7 °F /  25.4 °C 54.6 °F /  12.6 °C 30.31in /  1026.3hPa South 4.0mph /  6.4km/h 4.0mph /  6.4km/h 45% 0.00in /  0mm WeatherDisplay:10.37 W/m2 CLR
13:39 78.2 °F /  25.7 °C 55.1 °F /  12.8 °C 30.31in /  1026.3hPa West 5.8mph /  9.3km/h 5.8mph /  9.3km/h 45% 0.00in /  0mm WeatherDisplay:10.37 W/m2 CLR
13:44 78.6 °F /  25.9 °C 56.1 °F /  13.4 °C 30.30in /  1026hPa SSW 6.9mph /  11.1km/h 6.9mph /  11.1km/h 46% 0.00in /  0mm WeatherDisplay:10.37 W/m2 CLR
13:49 78.3 °F /  25.7 °C 55.8 °F /  13.2 °C 30.30in /  1026hPa SW 4.0mph /  6.4km/h 4.0mph /  6.4km/h 46% 0.00in /  0mm WeatherDisplay:10.37 W/m2 CLR
13:54 78.9 °F /  26.1 °C 56.3 °F /  13.5 °C 30.30in /  1026hPa West 6.9mph /  11.1km/h 6.9mph /  11.1km/h 46% 0.00in /  0mm WeatherDisplay:10.37 W/m2 CLR
13:59 79.0 °F /  26.1 °C 54.6 °F /  12.6 °C 30.29in /  1025.6hPa East 3.5mph /  5.6km/h 3.5mph /  5.6km/h 43% 0.00in /  0mm WeatherDisplay:10.37 W/m2 CLR
14:04 79.1 °F /  26.2 °C 56.5 °F /  13.6 °C 30.29in /  1025.6hPa WSW 3.5mph /  5.6km/h 3.5mph /  5.6km/h 46% 0.00in /  0mm WeatherDisplay:10.37 W/m2 CLR
14:09 79.4 °F /  26.3 °C 56.2 °F /  13.4 °C 30.29in /  1025.6hPa South 3.5mph /  5.6km/h 3.5mph /  5.6km/h 45% 0.00in /  0mm WeatherDisplay:10.37 W/m2 CLR
14:14 79.3 °F /  26.3 °C 53.5 °F /  11.9 °C 30.28in /  1025.3hPa SW 6.9mph /  11.1km/h 6.9mph /  11.1km/h 41% 0.00in /  0mm WeatherDisplay:10.37 W/m2 CLR
14:19 79.2 °F /  26.2 °C 52.8 °F /  11.6 °C 30.28in /  1025.3hPa West 4.6mph /  7.4km/h 4.6mph /  7.4km/h 40% 0.00in /  0mm WeatherDisplay:10.37 W/m2 CLR
14:24 79.0 °F /  26.1 °C 52.6 °F /  11.4 °C 30.28in /  1025.3hPa SSW 10.4mph /  16.7km/h 10.4mph /  16.7km/h 40% 0.00in /  0mm WeatherDisplay:10.37 W/m2 CLR
14:29 79.3 °F /  26.3 °C 54.2 °F /  12.3 °C 30.28in /  1025.3hPa South 3.5mph /  5.6km/h 3.5mph /  5.6km/h 42% 0.00in /  0mm WeatherDisplay:10.37 W/m2 CLR
14:34 79.4 °F /  26.3 °C 52.9 °F /  11.6 °C 30.28in /  1025.3hPa West 3.5mph /  5.6km/h 3.5mph /  5.6km/h 40% 0.00in /  0mm WeatherDisplay:10.37 W/m2 CLR
14:39 79.1 °F /  26.2 °C 53.3 °F /  11.8 °C 30.27in /  1024.9hPa SSW 6.9mph /  11.1km/h 6.9mph /  11.1km/h 41% 0.00in /  0mm WeatherDisplay:10.37 W/m2 CLR
14:44 79.4 °F /  26.3 °C 53.6 °F /  12 °C 30.27in /  1024.9hPa SW 6.9mph /  11.1km/h 6.9mph /  11.1km/h 41% 0.00in /  0mm WeatherDisplay:10.37 W/m2 CLR
14:49 79.5 °F /  26.4 °C 52.3 °F /  11.3 °C 30.27in /  1024.9hPa SW 2.3mph /  3.7km/h 2.3mph /  3.7km/h 39% 0.00in /  0mm WeatherDisplay:10.37 W/m2 CLR
14:54 80.2 °F /  26.8 °C 52.3 °F /  11.3 °C 30.27in /  1024.9hPa South 10.4mph /  16.7km/h 10.4mph /  16.7km/h 38% 0.00in /  0mm WeatherDisplay:10.37 W/m2 CLR
14:59 80.2 °F /  26.8 °C 54.3 °F /  12.4 °C 30.27in /  1024.9hPa SW 6.0mph /  9.7km/h 6.0mph /  9.7km/h 41% 0.00in /  0mm WeatherDisplay:10.37 W/m2 CLR
15:04 79.6 °F /  26.4 °C 53.8 °F /  12.1 °C 30.27in /  1024.9hPa SSW 6.9mph /  11.1km/h 6.9mph /  11.1km/h 41% 0.00in /  0mm WeatherDisplay:10.37 W/m2 CLR
15:09 80.0 °F /  26.7 °C 54.1 °F /  12.3 °C 30.26in /  1024.6hPa SE 4.6mph /  7.4km/h 4.6mph /  7.4km/h 41% 0.00in /  0mm WeatherDisplay:10.37 W/m2 CLR
15:14 80.3 °F /  26.8 °C 53.0 °F /  11.7 °C 30.26in /  1024.6hPa WSW 3.5mph /  5.6km/h 3.5mph /  5.6km/h 39% 0.00in /  0mm WeatherDisplay:10.37 W/m2 CLR
15:19 80.8 °F /  27.1 °C 52.8 °F /  11.6 °C 30.26in /  1024.6hPa WSW 3.5mph /  5.6km/h 3.5mph /  5.6km/h 38% 0.00in /  0mm WeatherDisplay:10.37 W/m2 CLR
15:24 80.6 °F /  27 °C 53.3 °F /  11.8 °C 30.26in /  1024.6hPa SW 4.6mph /  7.4km/h 4.6mph /  7.4km/h 39% 0.00in /  0mm WeatherDisplay:10.37 W/m2 CLR
15:29 80.5 °F /  26.9 °C 53.2 °F /  11.8 °C 30.26in /  1024.6hPa SSW 4.6mph /  7.4km/h 4.6mph /  7.4km/h 39% 0.00in /  0mm WeatherDisplay:10.37 W/m2 CLR
15:32 80.5 °F /  26.9 °C 53.9 °F /  12.2 °C 30.26in /  1024.6hPa SSW 5.0mph /  8km/h 5.0mph /  8km/h 40% 0.00in /  0mm WeatherDisplay:10.37 W/m2 CLR
15:37 80.3 °F /  26.8 °C 53.7 °F /  12.1 °C 30.27in /  1024.9hPa West 3.5mph /  5.6km/h 3.5mph /  5.6km/h 40% 0.00in /  0mm WeatherDisplay:10.37 W/m2 CLR
15:42 80.2 °F /  26.8 °C 54.3 °F /  12.4 °C 30.26in /  1024.6hPa West 4.0mph /  6.4km/h 4.0mph /  6.4km/h 41% 0.00in /  0mm WeatherDisplay:10.37 W/m2 CLR
15:47 80.2 °F /  26.8 °C 54.3 °F /  12.4 °C 30.26in /  1024.6hPa SW 6.0mph /  9.7km/h 6.0mph /  9.7km/h 41% 0.00in /  0mm WeatherDisplay:10.37 W/m2 CLR
15:52 80.5 °F /  26.9 °C 55.3 °F /  12.9 °C 30.26in /  1024.6hPa SW 1.2mph /  1.9km/h 1.2mph /  1.9km/h 42% 0.00in /  0mm WeatherDisplay:10.37 W/m2 CLR
15:57 81.6 °F /  27.6 °C 54.9 °F /  12.7 °C 30.26in /  1024.6hPa South 6.0mph /  9.7km/h 6.0mph /  9.7km/h 40% 0.00in /  0mm WeatherDisplay:10.37 W/m2 CLR
16:02 81.4 °F /  27.4 °C 53.3 °F /  11.8 °C 30.26in /  1024.6hPa SSW 3.5mph /  5.6km/h 3.5mph /  5.6km/h 38% 0.00in /  0mm WeatherDisplay:10.37 W/m2 CLR
16:07 81.7 °F /  27.6 °C 57.6 °F /  14.2 °C 30.25in /  1024.3hPa SSE 3.5mph /  5.6km/h 3.5mph /  5.6km/h 44% 0.00in /  0mm WeatherDisplay:10.37 W/m2 CLR
16:12 82.0 °F /  27.8 °C 54.6 °F /  12.6 °C 30.25in /  1024.3hPa SW 5.8mph /  9.3km/h 5.8mph /  9.3km/h 39% 0.00in /  0mm WeatherDisplay:10.37 W/m2 CLR
16:17 81.0 °F /  27.2 °C 54.4 °F /  12.4 °C 30.26in /  1024.6hPa SW 4.6mph /  7.4km/h 4.6mph /  7.4km/h 40% 0.00in /  0mm WeatherDisplay:10.37 W/m2 CLR
16:22 81.0 °F /  27.2 °C 55.0 °F /  12.8 °C 30.25in /  1024.3hPa SSW 4.0mph /  6.4km/h 4.0mph /  6.4km/h 41% 0.00in /  0mm WeatherDisplay:10.37 W/m2 CLR
16:27 81.2 °F /  27.3 °C 53.8 °F /  12.1 °C 30.25in /  1024.3hPa SW 6.9mph /  11.1km/h 6.9mph /  11.1km/h 39% 0.00in /  0mm WeatherDisplay:10.37 W/m2 CLR
16:32 81.3 °F /  27.4 °C 54.6 °F /  12.6 °C 30.25in /  1024.3hPa SSW 3.5mph /  5.6km/h 3.5mph /  5.6km/h 40% 0.00in /  0mm WeatherDisplay:10.37 W/m2 CLR
16:37 81.3 °F /  27.4 °C 54.6 °F /  12.6 °C 30.25in /  1024.3hPa SW 3.5mph /  5.6km/h 3.5mph /  5.6km/h 40% 0.00in /  0mm WeatherDisplay:10.37 W/m2 CLR
16:42 81.5 °F /  27.5 °C 56.2 °F /  13.4 °C 30.25in /  1024.3hPa SW 4.0mph /  6.4km/h 4.0mph /  6.4km/h 42% 0.00in /  0mm WeatherDisplay:10.37 W/m2 CLR
16:47 81.6 °F /  27.6 °C 54.9 °F /  12.7 °C 30.25in /  1024.3hPa SSW 3.5mph /  5.6km/h 3.5mph /  5.6km/h 40% 0.00in /  0mm WeatherDisplay:10.37 W/m2 CLR
16:52 82.0 °F /  27.8 °C 54.6 °F /  12.6 °C 30.25in /  1024.3hPa SW 3.5mph /  5.6km/h 3.5mph /  5.6km/h 39% 0.00in /  0mm WeatherDisplay:10.37 W/m2 CLR
16:57 81.8 °F /  27.7 °C 53.7 °F /  12.1 °C 30.25in /  1024.3hPa West 8.1mph /  13km/h 8.1mph /  13km/h 38% 0.00in /  0mm WeatherDisplay:10.37 W/m2 CLR
17:02 81.1 °F /  27.3 °C 54.5 °F /  12.5 °C 30.25in /  1024.3hPa SSW 6.0mph /  9.7km/h 6.0mph /  9.7km/h 40% 0.00in /  0mm WeatherDisplay:10.37 W/m2 CLR
Smyth Weather
Compliments of Weather Underground - 2.75 mb